Observation data for Northwest San Angelo on 07/23/2019      Previous  Date  Next       Current Mesonet Observations  Soil Data  Daily Summary Page  Observations in Plain Language
KASU 230500Z 05006KT 25/18 A3016 RMK A01 T02500182  RH  070%=      5-min Rain = 0
KASU 230505Z 05006KT 25/18 A3016 RMK A01 T02510181  RH  069%=      5-min Rain = 0
KASU 230510Z 05007KT 25/18 A3017 RMK A01 T02500181  RH  069%=      5-min Rain = 0
KASU 230515Z 05005KT 25/18 A3017 RMK A01 T02490181  RH  070%=      5-min Rain = 0
KASU 230520Z 05005KT 25/18 A3017 RMK A01 T02480181  RH  070%=      5-min Rain = 0
KASU 230525Z 04005KT 25/18 A3017 RMK A01 T02480180  RH  070%=      5-min Rain = 0
KASU 230530Z 04005KT 25/18 A3017 RMK A01 T02480180  RH  069%=      5-min Rain = 0
KASU 230535Z 04005KT 25/18 A3017 RMK A01 T02480180  RH  069%=      5-min Rain = 0
KASU 230540Z 04006KT 25/18 A3017 RMK A01 T02480179  RH  069%=      5-min Rain = 0
KASU 230545Z 04006KT 25/18 A3017 RMK A01 T02490179  RH  069%=      5-min Rain = 0
KASU 230550Z 04007KT 25/18 A3017 RMK A01 T02480178  RH  069%=      5-min Rain = 0
KASU 230555Z 04006KT 25/18 A3017 RMK A01 T02480178  RH  069%=      5-min Rain = 0
KASU 230600Z 04006KT 25/18 A3016 RMK A01 T02460178  RH  069%=      5-min Rain = 0
KASU 230605Z 04005KT 25/18 A3016 RMK A01 T02460177  RH  069%=      5-min Rain = 0
KASU 230610Z 04005KT 25/18 A3016 RMK A01 T02450177  RH  069%=      5-min Rain = 0
KASU 230615Z 04005KT 24/18 A3016 RMK A01 T02440176  RH  069%=      5-min Rain = 0
KASU 230620Z 04005KT 24/18 A3016 RMK A01 T02430176  RH  069%=      5-min Rain = 0
KASU 230625Z 04004KT 24/18 A3016 RMK A01 T02430175  RH  069%=      5-min Rain = 0
KASU 230630Z 04004KT 24/18 A3016 RMK A01 T02420175  RH  070%=      5-min Rain = 0
KASU 230635Z 05004KT 24/17 A3016 RMK A01 T02420174  RH  070%=      5-min Rain = 0
KASU 230640Z 06003KT 24/18 A3017 RMK A01 T02410175  RH  070%=      5-min Rain = 0
KASU 230645Z 07003KT 24/18 A3017 RMK A01 T02400175  RH  071%=      5-min Rain = 0
KASU 230650Z 06003KT 24/18 A3017 RMK A01 T02400175  RH  071%=      5-min Rain = 0
KASU 230655Z 05003KT 24/18 A3017 RMK A01 T02390175  RH  071%=      5-min Rain = 0
KASU 230700Z 04003KT 24/17 A3017 RMK A01 T02390174  RH  071%=      5-min Rain = 0
KASU 230705Z 02002KT 24/17 A3017 RMK A01 T02400174  RH  070%=      5-min Rain = 0
KASU 230710Z 02002KT 24/17 A3017 RMK A01 T02400174  RH  070%=      5-min Rain = 0
KASU 230715Z 36002KT 24/17 A3017 RMK A01 T02400173  RH  070%=      5-min Rain = 0
KASU 230720Z 34001KT 24/17 A3017 RMK A01 T02400174  RH  070%=      5-min Rain = 0
KASU 230725Z 34002KT 24/17 A3017 RMK A01 T02400174  RH  070%=      5-min Rain = 0
KASU 230730Z 34002KT 24/17 A3017 RMK A01 T02410174  RH  070%=      5-min Rain = 0
KASU 230735Z 00002KT 24/17 A3017 RMK A01 T02410173  RH  069%=      5-min Rain = 0
KASU 230740Z 01003KT 24/17 A3018 RMK A01 T02410172  RH  069%=      5-min Rain = 0
KASU 230745Z 00003KT 24/17 A3018 RMK A01 T02410171  RH  068%=      5-min Rain = 0
KASU 230750Z 01003KT 24/17 A3018 RMK A01 T02410171  RH  068%=      5-min Rain = 0
KASU 230755Z 01004KT 24/17 A3018 RMK A01 T02420170  RH  068%=      5-min Rain = 0
KASU 230800Z 02004KT 24/17 A3018 RMK A01 T02420170  RH  067%=      5-min Rain = 0
KASU 230805Z 03003KT 24/17 A3018 RMK A01 T02420169  RH  067%=      5-min Rain = 0
KASU 230810Z 03004KT 24/17 A3018 RMK A01 T02410169  RH  067%=      5-min Rain = 0
KASU 230815Z 03005KT 24/17 A3018 RMK A01 T02400169  RH  067%=      5-min Rain = 0
KASU 230820Z 03004G9KT 24/17 A3018 RMK A01 T02400169  RH  068%=      5-min Rain = 0
KASU 230825Z 04004KT 24/17 A3018 RMK A01 T02380169  RH  069%=      5-min Rain = 0
KASU 230830Z 04005KT 24/17 A3018 RMK A01 T02370169  RH  069%=      5-min Rain = 0
KASU 230835Z 04006KT 24/17 A3018 RMK A01 T02360169  RH  069%=      5-min Rain = 0
KASU 230840Z 04005KT 23/17 A3018 RMK A01 T02340169  RH  070%=      5-min Rain = 0
KASU 230845Z 04005KT 23/17 A3018 RMK A01 T02320169  RH  071%=      5-min Rain = 0
KASU 230850Z 04004KT 23/17 A3019 RMK A01 T02320169  RH  071%=      5-min Rain = 0
KASU 230855Z 03003KT 23/17 A3019 RMK A01 T02310169  RH  071%=      5-min Rain = 0
KASU 230905Z 02003KT 23/17 A3019 RMK A01 T02310169  RH  072%=      5-min Rain = 0
KASU 230910Z 03004KT 23/17 A3019 RMK A01 T02310169  RH  071%=      5-min Rain = 0
KASU 230915Z 04004KT 23/17 A3019 RMK A01 T02320169  RH  071%=      5-min Rain = 0
KASU 230920Z 04004KT 23/17 A3019 RMK A01 T02310168  RH  071%=      5-min Rain = 0
KASU 230925Z 04004KT 23/17 A3019 RMK A01 T02290168  RH  072%=      5-min Rain = 0
KASU 230930Z 04005KT 23/17 A3019 RMK A01 T02280168  RH  072%=      5-min Rain = 0
KASU 230935Z 04004KT 23/17 A3019 RMK A01 T02280168  RH  072%=      5-min Rain = 0
KASU 230940Z 04004KT 23/17 A3019 RMK A01 T02270168  RH  073%=      5-min Rain = 0
KASU 230945Z 03003KT 23/17 A3019 RMK A01 T02260168  RH  073%=      5-min Rain = 0
KASU 230950Z 02003KT 23/17 A3019 RMK A01 T02260168  RH  073%=      5-min Rain = 0
KASU 230955Z 02002KT 23/17 A302 RMK A01 T02260168  RH  073%=      5-min Rain = 0
KASU 231000Z 03004G9KT 23/17 A302 RMK A01 T02260167  RH  073%=      5-min Rain = 0
KASU 231005Z 04006KT 23/17 A302 RMK A01 T02260166  RH  072%=      5-min Rain = 0
KASU 231010Z 04005KT 22/16 A302 RMK A01 T02240164  RH  072%=      5-min Rain = 0
KASU 231015Z 04004KT 22/16 A302 RMK A01 T02230164  RH  072%=      5-min Rain = 0
KASU 231020Z 03003KT 22/16 A302 RMK A01 T02230163  RH  072%=      5-min Rain = 0
KASU 231025Z 03003KT 22/16 A302 RMK A01 T02220163  RH  073%=      5-min Rain = 0
KASU 231030Z 03003KT 22/16 A302 RMK A01 T02210163  RH  073%=      5-min Rain = 0
KASU 231035Z 03003KT 22/16 A3021 RMK A01 T02190162  RH  074%=      5-min Rain = 0
KASU 231040Z 02003KT 22/16 A3021 RMK A01 T02180162  RH  074%=      5-min Rain = 0
KASU 231045Z 01003KT 22/16 A3021 RMK A01 T02170162  RH  075%=      5-min Rain = 0
KASU 231050Z 02003KT 22/16 A3021 RMK A01 T02170162  RH  075%=      5-min Rain = 0
KASU 231055Z 02003KT 22/16 A3021 RMK A01 T02170162  RH  075%=      5-min Rain = 0
KASU 231100Z 03003KT 22/16 A3021 RMK A01 T02160162  RH  075%=      5-min Rain = 0
KASU 231105Z 03004KT 22/16 A3021 RMK A01 T02150161  RH  075%=      5-min Rain = 0
KASU 231110Z 03004KT 21/16 A3021 RMK A01 T02130161  RH  076%=      5-min Rain = 0
KASU 231115Z 03004KT 21/16 A3021 RMK A01 T02130161  RH  076%=      5-min Rain = 0
KASU 231120Z 04003KT 21/16 A3021 RMK A01 T02120160  RH  076%=      5-min Rain = 0
KASU 231125Z 04004KT 21/16 A3021 RMK A01 T02120160  RH  075%=      5-min Rain = 0
KASU 231130Z 04003KT 21/16 A3021 RMK A01 T02120159  RH  075%=      5-min Rain = 0
KASU 231135Z 04003KT 21/16 A3022 RMK A01 T02110158  RH  075%=      5-min Rain = 0
KASU 231140Z 04003KT 21/16 A3022 RMK A01 T02090157  RH  075%=      5-min Rain = 0
KASU 231145Z 04003KT 21/16 A3022 RMK A01 T02090156  RH  075%=      5-min Rain = 0
KASU 231150Z 04003KT 21/16 A3022 RMK A01 T02080155  RH  075%=      5-min Rain = 0
KASU 231155Z 04003KT 21/16 A3022 RMK A01 T02070155  RH  075%=      5-min Rain = 0
KASU 231200Z 04002KT 21/15 A3022 RMK A01 T02070154  RH  075%=      5-min Rain = 0
KASU 231205Z 03003KT 21/15 A3022 RMK A01 T02070154  RH  075%=      5-min Rain = 0
KASU 231210Z 03003KT 21/15 A3022 RMK A01 T02070153  RH  075%=      5-min Rain = 0
KASU 231215Z 03003KT 21/15 A3022 RMK A01 T02070153  RH  074%=      5-min Rain = 0
KASU 231220Z 03002KT 21/15 A3023 RMK A01 T02080153  RH  074%=      5-min Rain = 0
KASU 231225Z 03002KT 21/15 A3023 RMK A01 T02090153  RH  074%=      5-min Rain = 0
KASU 231230Z 03003KT 21/15 A3023 RMK A01 T02110153  RH  073%=      5-min Rain = 0
KASU 231235Z 03003KT 21/15 A3023 RMK A01 T02130153  RH  072%=      5-min Rain = 0
KASU 231240Z 02003KT 22/15 A3023 RMK A01 T02160153  RH  071%=      5-min Rain = 0
KASU 231245Z 02002KT 22/15 A3023 RMK A01 T02180153  RH  070%=      5-min Rain = 0
KASU 231250Z 02002KT 22/15 A3023 RMK A01 T02210152  RH  068%=      5-min Rain = 0
KASU 231255Z 03002KT 22/15 A3024 RMK A01 T02240153  RH  067%=      5-min Rain = 0
KASU 231300Z 02002KT 23/15 A3024 RMK A01 T02260152  RH  066%=      5-min Rain = 0
KASU 231305Z 03003KT 23/15 A3024 RMK A01 T02270151  RH  065%=      5-min Rain = 0
KASU 231310Z 03003KT 23/15 A3024 RMK A01 T02280150  RH  064%=      5-min Rain = 0
KASU 231315Z 03003KT 23/15 A3024 RMK A01 T02300150  RH  064%=      5-min Rain = 0
KASU 231320Z 04002KT 23/15 A3024 RMK A01 T02310151  RH  063%=      5-min Rain = 0
KASU 231325Z 03003KT 23/15 A3024 RMK A01 T02340151  RH  062%=      5-min Rain = 0
KASU 231330Z 05004KT 23/15 A3024 RMK A01 T02330149  RH  062%=      5-min Rain = 0
KASU 231335Z 05006KT 23/15 A3024 RMK A01 T02340148  RH  061%=      5-min Rain = 0
KASU 231340Z 05006KT 23/15 A3024 RMK A01 T02340148  RH  061%=      5-min Rain = 0
KASU 231345Z 05005KT 24/15 A3025 RMK A01 T02360147  RH  060%=      5-min Rain = 0
KASU 231350Z 05008KT 24/14 A3025 RMK A01 T02360144  RH  059%=      5-min Rain = 0
KASU 231355Z 06007KT 24/15 A3025 RMK A01 T02380145  RH  059%=      5-min Rain = 0
KASU 231400Z 06007KT 24/14 A3025 RMK A01 T02390142  RH  057%=      5-min Rain = 0
KASU 231405Z 06007KT 24/14 A3025 RMK A01 T02400143  RH  057%=      5-min Rain = 0
KASU 231410Z 06008KT 24/14 A3025 RMK A01 T02420142  RH  056%=      5-min Rain = 0
KASU 231415Z 06008G13KT 24/14 A3025 RMK A01 T02430141  RH  056%=      5-min Rain = 0
KASU 231420Z 06008KT 25/14 A3025 RMK A01 T02460144  RH  056%=      5-min Rain = 0
KASU 231425Z 06008KT 24/14 A3025 RMK A01 T02440141  RH  055%=      5-min Rain = 0
KASU 231430Z 05008KT 25/14 A3025 RMK A01 T02450140  RH  054%=      5-min Rain = 0
KASU 231435Z 05008KT 25/14 A3025 RMK A01 T02460141  RH  054%=      5-min Rain = 0
KASU 231440Z 06007KT 25/14 A3025 RMK A01 T02510144  RH  054%=      5-min Rain = 0
KASU 231445Z 06009KT 25/14 A3025 RMK A01 T02510141  RH  052%=      5-min Rain = 0
KASU 231450Z 06010G15KT 25/14 A3025 RMK A01 T02520137  RH  051%=      5-min Rain = 0
KASU 231455Z 05011KT 25/13 A3025 RMK A01 T02510132  RH  049%=      5-min Rain = 0
KASU 231500Z 06010KT 25/13 A3025 RMK A01 T02530133  RH  049%=      5-min Rain = 0
KASU 231505Z 06009G16KT 26/13 A3025 RMK A01 T02560134  RH  049%=      5-min Rain = 0
KASU 231510Z 06010KT 26/13 A3025 RMK A01 T02580132  RH  047%=      5-min Rain = 0
KASU 231515Z 07011KT 26/13 A3025 RMK A01 T02570132  RH  048%=      5-min Rain = 0
KASU 231520Z 06010KT 26/13 A3025 RMK A01 T02600131  RH  047%=      5-min Rain = 0
KASU 231525Z 06009G15KT 26/13 A3025 RMK A01 T02620133  RH  047%=      5-min Rain = 0
KASU 231530Z 07011KT 26/13 A3025 RMK A01 T02620129  RH  045%=      5-min Rain = 0
KASU 231535Z 07010G15KT 26/13 A3025 RMK A01 T02620132  RH  047%=      5-min Rain = 0
KASU 231540Z 06009G14KT 26/13 A3025 RMK A01 T02630133  RH  047%=      5-min Rain = 0
KASU 231545Z 06011G16KT 27/13 A3025 RMK A01 T02670132  RH  045%=      5-min Rain = 0
KASU 231550Z 07010G15KT 27/13 A3025 RMK A01 T02660129  RH  044%=      5-min Rain = 0
KASU 231555Z 06010KT 27/13 A3025 RMK A01 T02670130  RH  045%=      5-min Rain = 0
KASU 231600Z 05008G13KT 27/13 A3025 RMK A01 T02670129  RH  044%=      5-min Rain = 0
KASU 231605Z 05008G15KT 27/13 A3025 RMK A01 T02710133  RH  044%=      5-min Rain = 0
KASU 231610Z 05009G16KT 27/13 A3025 RMK A01 T02710131  RH  044%=      5-min Rain = 0
KASU 231615Z 07011G16KT 27/13 A3025 RMK A01 T02710126  RH  042%=      5-min Rain = 0
KASU 231620Z 06010KT 27/13 A3025 RMK A01 T02740129  RH  042%=      5-min Rain = 0
KASU 231625Z 05010G17KT 28/13 A3025 RMK A01 T02750127  RH  041%=      5-min Rain = 0
KASU 231630Z 06010G15KT 28/12 A3025 RMK A01 T02770123  RH  040%=      5-min Rain = 0
KASU 231635Z 05011G16KT 28/12 A3024 RMK A01 T02770120  RH  039%=      5-min Rain = 0
KASU 231640Z 06014G19KT 28/12 A3024 RMK A01 T02780115  RH  038%=      5-min Rain = 0
KASU 231645Z 06012G19KT 28/11 A3024 RMK A01 T02780114  RH  037%=      5-min Rain = 0
KASU 231650Z 05011G16KT 28/11 A3024 RMK A01 T02800114  RH  037%=      5-min Rain = 0
KASU 231655Z 05010G17KT 28/12 A3024 RMK A01 T02810117  RH  038%=      5-min Rain = 0
KASU 231700Z 04011G18KT 28/12 A3024 RMK A01 T02820116  RH  037%=      5-min Rain = 0
KASU 231705Z 05011G18KT 28/11 A3024 RMK A01 T02830113  RH  036%=      5-min Rain = 0
KASU 231710Z 05012KT 29/12 A3024 RMK A01 T02850116  RH  036%=      5-min Rain = 0
KASU 231715Z 02009G16KT 29/11 A3024 RMK A01 T02850114  RH  036%=      5-min Rain = 0
KASU 231720Z 04009G15KT 29/12 A3024 RMK A01 T02910115  RH  035%=      5-min Rain = 0
KASU 231725Z 04010G18KT 29/11 A3023 RMK A01 T02890114  RH  035%=      5-min Rain = 0
KASU 231730Z 05011G17KT 29/11 A3023 RMK A01 T02890111  RH  034%=      5-min Rain = 0
KASU 231735Z 06012G18KT 29/11 A3023 RMK A01 T02880113  RH  035%=      5-min Rain = 0
KASU 231740Z 06013G19KT 29/12 A3023 RMK A01 T02900115  RH  035%=      5-min Rain = 0
KASU 231745Z 07013KT 29/11 A3023 RMK A01 T02900114  RH  035%=      5-min Rain = 0
KASU 231750Z 03007G13KT 29/11 A3023 RMK A01 T02890114  RH  035%=      5-min Rain = 0
KASU 231755Z 04007G13KT 30/12 A3023 RMK A01 T02970118  RH  034%=      5-min Rain = 0
KASU 231800Z 06012G19KT 30/12 A3023 RMK A01 T02970117  RH  034%=      5-min Rain = 0
KASU 231805Z 06011G17KT 29/12 A3023 RMK A01 T02940115  RH  034%=      5-min Rain = 0
KASU 231810Z 05009G16KT 30/12 A3022 RMK A01 T02970117  RH  034%=      5-min Rain = 0
KASU 231815Z 03009G15KT 30/11 A3022 RMK A01 T02980110  RH  032%=      5-min Rain = 0
KASU 231820Z 03008G14KT 30/11 A3022 RMK A01 T03010112  RH  032%=      5-min Rain = 0
KASU 231825Z 03010G16KT 30/11 A3021 RMK A01 T03000109  RH  032%=      5-min Rain = 0
KASU 231830Z 03009G15KT 30/11 A3021 RMK A01 T03000106  RH  031%=      5-min Rain = 0
KASU 231835Z 03009G15KT 30/10 A3021 RMK A01 T03010103  RH  030%=      5-min Rain = 0
KASU 231840Z 04010G17KT 30/11 A3021 RMK A01 T03000105  RH  031%=      5-min Rain = 0
KASU 231845Z 06011G20KT 30/11 A3021 RMK A01 T03000109  RH  032%=      5-min Rain = 0
KASU 231850Z 06010G17KT 30/11 A3021 RMK A01 T03000111  RH  032%=      5-min Rain = 0
KASU 231855Z 05011G20KT 30/11 A3021 RMK A01 T02980110  RH  032%=      5-min Rain = 0
KASU 231900Z 06011G17KT 30/11 A3021 RMK A01 T02960106  RH  032%=      5-min Rain = 0
KASU 231905Z 08011G18KT 30/11 A302 RMK A01 T02960109  RH  032%=      5-min Rain = 0
KASU 231910Z 05008G13KT 30/11 A302 RMK A01 T03040114  RH  032%=      5-min Rain = 0
KASU 231915Z 35011G19KT 31/11 A302 RMK A01 T03060110  RH  031%=      5-min Rain = 0
KASU 231920Z 05009G15KT 30/11 A302 RMK A01 T03040112  RH  032%=      5-min Rain = 0
KASU 231925Z 05011G17KT 30/11 A302 RMK A01 T03040108  RH  031%=      5-min Rain = 0
KASU 231930Z 05013G20KT 30/11 A302 RMK A01 T03040105  RH  030%=      5-min Rain = 0
KASU 231935Z 03007G14KT 31/11 A302 RMK A01 T03090110  RH  030%=      5-min Rain = 0
KASU 231940Z 03008G13KT 31/11 A3019 RMK A01 T03110108  RH  030%=      5-min Rain = 0
KASU 231945Z 02010G15KT 31/11 A3019 RMK A01 T03110106  RH  029%=      5-min Rain = 0
KASU 231950Z 03011G17KT 31/10 A3019 RMK A01 T03070104  RH  030%=      5-min Rain = 0
KASU 231955Z 03011G16KT 30/10 A3019 RMK A01 T03030102  RH  030%=      5-min Rain = 0
KASU 232000Z 04010G15KT 31/11 A3018 RMK A01 T03070106  RH  030%=      5-min Rain = 0
KASU 232005Z 02009G17KT 31/10 A3018 RMK A01 T03080104  RH  029%=      5-min Rain = 0
KASU 232010Z 01008G14KT 31/11 A3018 RMK A01 T03100106  RH  029%=      5-min Rain = 0
KASU 232015Z 04011G19KT 31/11 A3018 RMK A01 T03090105  RH  029%=      5-min Rain = 0
KASU 232020Z 04010G16KT 31/11 A3017 RMK A01 T03110106  RH  029%=      5-min Rain = 0
KASU 232025Z 03010G20KT 31/10 A3017 RMK A01 T03100101  RH  028%=      5-min Rain = 0
KASU 232030Z 01009G15KT 31/10 A3017 RMK A01 T03080103  RH  029%=      5-min Rain = 0
KASU 232035Z 04012G19KT 31/11 A3017 RMK A01 T03080105  RH  029%=      5-min Rain = 0
KASU 232040Z 02008G16KT 31/10 A3017 RMK A01 T03080104  RH  029%=      5-min Rain = 0
KASU 232045Z 05011G20KT 30/10 A3017 RMK A01 T02990101  RH  030%=      5-min Rain = 0
KASU 232050Z 04010G19KT 30/10 A3016 RMK A01 T03030101  RH  030%=      5-min Rain = 0
KASU 232055Z 02012G18KT 30/10 A3016 RMK A01 T03040102  RH  030%=      5-min Rain = 0
KASU 232100Z 01010G16KT 30/10 A3016 RMK A01 T03030100  RH  029%=      5-min Rain = 0
KASU 232105Z 00009G16KT 31/10 A3016 RMK A01 T03080100  RH  029%=      5-min Rain = 0
KASU 232110Z 02010G17KT 31/10 A3016 RMK A01 T03060100  RH  029%=      5-min Rain = 0
KASU 232115Z 04011G16KT 30/10 A3016 RMK A01 T02980100  RH  030%=      5-min Rain = 0
KASU 232120Z 02008G13KT 30/10 A3016 RMK A01 T02970100  RH  030%=      5-min Rain = 0
KASU 232125Z 05010G18KT 30/10 A3015 RMK A01 T03020104  RH  030%=      5-min Rain = 0
KASU 232130Z 02010G16KT 31/10 A3015 RMK A01 T03090101  RH  029%=      5-min Rain = 0
KASU 232135Z 04011G18KT 30/10 A3015 RMK A01 T03030100  RH  029%=      5-min Rain = 0
KASU 232140Z 02010G18KT 31/10 A3015 RMK A01 T03060103  RH  029%=      5-min Rain = 0
KASU 232145Z 04011G18KT 30/10 A3015 RMK A01 T02970103  RH  031%=      5-min Rain = 0
KASU 232150Z 04010G15KT 30/11 A3015 RMK A01 T03030105  RH  030%=      5-min Rain = 0
KASU 232155Z 04008G19KT 31/11 A3014 RMK A01 T03100106  RH  029%=      5-min Rain = 0
KASU 232200Z 03010G18KT 30/10 A3014 RMK A01 T02990100  RH  030%=      5-min Rain = 0
KASU 232205Z 02009G16KT 30/10 A3014 RMK A01 T02950099  RH  031%=      5-min Rain = 0
KASU 232210Z 02008KT 31/10 A3014 RMK A01 T03060101  RH  029%=      5-min Rain = 0
KASU 232215Z 01008G15KT 31/10 A3013 RMK A01 T03130100  RH  028%=      5-min Rain = 0
KASU 232220Z 03010G18KT 31/10 A3014 RMK A01 T03110104  RH  029%=      5-min Rain = 0
KASU 232225Z 03009G15KT 31/10 A3014 RMK A01 T03050101  RH  029%=      5-min Rain = 0
KASU 232230Z 03008G15KT 30/10 A3014 RMK A01 T02980099  RH  030%=      5-min Rain = 0
KASU 232235Z 01009G18KT 31/10 A3013 RMK A01 T03080100  RH  029%=      5-min Rain = 0
KASU 232240Z 01009G15KT 31/10 A3014 RMK A01 T03050097  RH  028%=      5-min Rain = 0
KASU 232245Z 00009KT 31/10 A3013 RMK A01 T03070100  RH  029%=      5-min Rain = 0
KASU 232250Z 36008KT 31/10 A3013 RMK A01 T03100100  RH  028%=      5-min Rain = 0
KASU 232255Z 04010G16KT 31/10 A3013 RMK A01 T03110097  RH  028%=      5-min Rain = 0
KASU 232300Z 04008G15KT 30/10 A3013 RMK A01 T03030095  RH  028%=      5-min Rain = 0
KASU 232305Z 04009G15KT 30/09 A3012 RMK A01 T03040094  RH  028%=      5-min Rain = 0
KASU 232310Z 01009G14KT 30/09 A3013 RMK A01 T02990089  RH  028%=      5-min Rain = 0
KASU 232315Z 02008G15KT 31/09 A3012 RMK A01 T03060090  RH  027%=      5-min Rain = 0
KASU 232320Z 02008G15KT 31/09 A3012 RMK A01 T03060090  RH  027%=      5-min Rain = 0
KASU 232325Z 03007G12KT 31/09 A3012 RMK A01 T03070093  RH  027%=      5-min Rain = 0
KASU 232330Z 02008KT 31/09 A3012 RMK A01 T03060088  RH  027%=      5-min Rain = 0
KASU 232335Z 03007G15KT 31/09 A3012 RMK A01 T03050089  RH  027%=      5-min Rain = 0
KASU 232340Z 02008G14KT 31/09 A3012 RMK A01 T03050089  RH  027%=      5-min Rain = 0
KASU 232345Z 03009G16KT 30/09 A3012 RMK A01 T03030086  RH  027%=      5-min Rain = 0
KASU 232350Z 01008G14KT 30/09 A3012 RMK A01 T03020086  RH  027%=      5-min Rain = 0
KASU 232355Z 02006KT 30/09 A3012 RMK A01 T03020088  RH  027%=      5-min Rain = 0
KASU 240000Z 03007G15KT 30/09 A3012 RMK A01 T03030089  RH  027%=      5-min Rain = 0
KASU 240005Z 02010G16KT 30/08 A3012 RMK A01 T03000082  RH  026%=      5-min Rain = 0
KASU 240010Z 02008G13KT 30/08 A3012 RMK A01 T02980080  RH  026%=      5-min Rain = 0
KASU 240015Z 02007KT 30/09 A3012 RMK A01 T02980085  RH  027%=      5-min Rain = 0
KASU 240020Z 05009KT 30/09 A3012 RMK A01 T02970088  RH  028%=      5-min Rain = 0
KASU 240025Z 05010G15KT 29/08 A3013 RMK A01 T02940084  RH  028%=      5-min Rain = 0
KASU 240030Z 03007G15KT 30/09 A3013 RMK A01 T02950086  RH  028%=      5-min Rain = 0
KASU 240035Z 04009G14KT 29/08 A3013 RMK A01 T02930084  RH  028%=      5-min Rain = 0
KASU 240040Z 03007G13KT 29/09 A3013 RMK A01 T02920085  RH  028%=      5-min Rain = 0
KASU 240045Z 04008KT 29/09 A3013 RMK A01 T02910086  RH  029%=      5-min Rain = 0
KASU 240050Z 03006KT 29/09 A3013 RMK A01 T02890087  RH  029%=      5-min Rain = 0
KASU 240055Z 04006KT 29/09 A3014 RMK A01 T02870086  RH  029%=      5-min Rain = 0
KASU 240100Z 04006KT 29/09 A3014 RMK A01 T02860085  RH  029%=      5-min Rain = 0
KASU 240105Z 04005KT 28/09 A3014 RMK A01 T02840086  RH  030%=      5-min Rain = 0
KASU 240110Z 04006KT 28/08 A3014 RMK A01 T02810084  RH  030%=      5-min Rain = 0
KASU 240115Z 05006KT 28/09 A3014 RMK A01 T02790085  RH  030%=      5-min Rain = 0
KASU 240120Z 04005KT 28/09 A3014 RMK A01 T02760085  RH  031%=      5-min Rain = 0
KASU 240125Z 04005KT 27/09 A3014 RMK A01 T02740085  RH  031%=      5-min Rain = 0
KASU 240130Z 04005KT 27/09 A3014 RMK A01 T02710085  RH  032%=      5-min Rain = 0
KASU 240135Z 04004KT 27/09 A3014 RMK A01 T02690086  RH  032%=      5-min Rain = 0
KASU 240140Z 05004KT 26/09 A3014 RMK A01 T02620089  RH  034%=      5-min Rain = 0
KASU 240145Z 04003KT 26/09 A3015 RMK A01 T02570089  RH  036%=      5-min Rain = 0
KASU 240150Z 04003KT 26/09 A3015 RMK A01 T02560088  RH  036%=      5-min Rain = 0
KASU 240155Z 04003KT 26/09 A3015 RMK A01 T02550089  RH  036%=      5-min Rain = 0
KASU 240200Z 02003KT 26/09 A3015 RMK A01 T02550089  RH  036%=      5-min Rain = 0
KASU 240205Z 02003KT 26/09 A3015 RMK A01 T02550089  RH  036%=      5-min Rain = 0
KASU 240210Z 02003KT 25/09 A3015 RMK A01 T02540090  RH  036%=      5-min Rain = 0
KASU 240215Z 03003KT 25/09 A3015 RMK A01 T02530090  RH  037%=      5-min Rain = 0
KASU 240220Z 03004KT 25/09 A3015 RMK A01 T02500091  RH  037%=      5-min Rain = 0
KASU 240225Z 03004KT 25/09 A3015 RMK A01 T02460092  RH  039%=      5-min Rain = 0
KASU 240230Z 04005KT 24/09 A3015 RMK A01 T02410094  RH  041%=      5-min Rain = 0
KASU 240235Z 04004KT 24/10 A3015 RMK A01 T02380096  RH  042%=      5-min Rain = 0
KASU 240240Z 05004KT 23/10 A3015 RMK A01 T02340098  RH  043%=      5-min Rain = 0
KASU 240245Z 04004KT 23/10 A3015 RMK A01 T02300098  RH  044%=      5-min Rain = 0
KASU 240250Z 05004KT 23/10 A3016 RMK A01 T02290099  RH  045%=      5-min Rain = 0
KASU 240255Z 05004KT 23/10 A3016 RMK A01 T02260099  RH  046%=      5-min Rain = 0
KASU 240300Z 05004KT 22/10 A3016 RMK A01 T02220100  RH  047%=      5-min Rain = 0
KASU 240305Z 04004KT 22/10 A3016 RMK A01 T02200100  RH  048%=      5-min Rain = 0
KASU 240310Z 04004KT 22/10 A3016 RMK A01 T02200100  RH  048%=      5-min Rain = 0
KASU 240315Z 05004KT 22/10 A3016 RMK A01 T02180100  RH  048%=      5-min Rain = 0
KASU 240320Z 05005KT 22/10 A3016 RMK A01 T02190099  RH  048%=      5-min Rain = 0
KASU 240325Z 05005KT 22/10 A3017 RMK A01 T02190099  RH  048%=      5-min Rain = 0
KASU 240330Z 04004KT 22/10 A3017 RMK A01 T02180099  RH  048%=      5-min Rain = 0
KASU 240335Z 04005KT 22/10 A3017 RMK A01 T02200098  RH  047%=      5-min Rain = 0
KASU 240340Z 05005KT 22/10 A3017 RMK A01 T02190098  RH  048%=      5-min Rain = 0
KASU 240345Z 06006KT 22/10 A3017 RMK A01 T02170098  RH  048%=      5-min Rain = 0
KASU 240350Z 06006KT 22/10 A3017 RMK A01 T02150099  RH  049%=      5-min Rain = 0
KASU 240355Z 05004KT 21/10 A3017 RMK A01 T02130099  RH  050%=      5-min Rain = 0
KASU 240400Z 04004KT 21/10 A3017 RMK A01 T02120097  RH  049%=      5-min Rain = 0
KASU 240405Z 05005KT 22/10 A3018 RMK A01 T02160096  RH  048%=      5-min Rain = 0
KASU 240410Z 05005KT 22/10 A3018 RMK A01 T02160096  RH  048%=      5-min Rain = 0
KASU 240415Z 05005KT 22/10 A3018 RMK A01 T02150095  RH  048%=      5-min Rain = 0
KASU 240420Z 05004KT 21/09 A3018 RMK A01 T02140094  RH  048%=      5-min Rain = 0
KASU 240425Z 05004KT 21/10 A3018 RMK A01 T02140095  RH  048%=      5-min Rain = 0
KASU 240430Z 04005KT 21/09 A3018 RMK A01 T02140094  RH  048%=      5-min Rain = 0
KASU 240435Z 05005KT 21/09 A3018 RMK A01 T02120094  RH  048%=      5-min Rain = 0
KASU 240440Z 06006KT 21/09 A3018 RMK A01 T02090094  RH  049%=      5-min Rain = 0
KASU 240445Z 05006KT 21/10 A3017 RMK A01 T02050095  RH  051%=      5-min Rain = 0
KASU 240450Z 05006KT 20/09 A3017 RMK A01 T02040094  RH  051%=      5-min Rain = 0
KASU 240455Z 05006KT 21/09 A3017 RMK A01 T02050094  RH  050%=      5-min Rain = 0

Page generated in 0.0473 seconds.